sensor_id;sensor_type;location;lat;lon;timestamp;P1;durP1;ratioP1;P2;durP2;ratioP2
58302;SDS011;44109;52.398;7.024;2024-03-07T00:00:07;53.35;;;29.45;;
58302;SDS011;44109;52.398;7.024;2024-03-07T00:02:42;45.30;;;27.85;;
58302;SDS011;44109;52.398;7.024;2024-03-07T00:05:11;47.75;;;30.23;;
58302;SDS011;44109;52.398;7.024;2024-03-07T00:07:41;42.05;;;25.90;;
58302;SDS011;44109;52.398;7.024;2024-03-07T00:10:10;47.88;;;28.90;;
58302;SDS011;44109;52.398;7.024;2024-03-07T00:12:38;53.10;;;32.88;;
58302;SDS011;44109;52.398;7.024;2024-03-07T00:15:07;47.10;;;29.10;;
58302;SDS011;44109;52.398;7.024;2024-03-07T00:17:37;47.85;;;30.73;;
58302;SDS011;44109;52.398;7.024;2024-03-07T00:20:05;49.10;;;28.85;;
58302;SDS011;44109;52.398;7.024;2024-03-07T00:22:41;54.92;;;32.30;;
58302;SDS011;44109;52.398;7.024;2024-03-07T00:25:09;49.22;;;29.73;;
58302;SDS011;44109;52.398;7.024;2024-03-07T00:27:40;50.88;;;30.67;;
58302;SDS011;44109;52.398;7.024;2024-03-07T00:30:11;51.97;;;31.60;;
58302;SDS011;44109;52.398;7.024;2024-03-07T00:32:39;50.40;;;31.60;;
58302;SDS011;44109;52.398;7.024;2024-03-07T00:35:07;43.72;;;26.90;;
58302;SDS011;44109;52.398;7.024;2024-03-07T00:37:35;44.60;;;28.35;;
58302;SDS011;44109;52.398;7.024;2024-03-07T00:40:05;44.92;;;30.38;;
58302;SDS011;44109;52.398;7.024;2024-03-07T00:42:34;55.00;;;34.35;;
58302;SDS011;44109;52.398;7.024;2024-03-07T00:45:02;49.55;;;29.65;;
58302;SDS011;44109;52.398;7.024;2024-03-07T00:47:31;49.10;;;30.67;;
58302;SDS011;44109;52.398;7.024;2024-03-07T00:49:59;53.03;;;35.08;;
58302;SDS011;44109;52.398;7.024;2024-03-07T00:52:27;51.80;;;33.25;;
58302;SDS011;44109;52.398;7.024;2024-03-07T00:54:54;46.42;;;29.35;;
58302;SDS011;44109;52.398;7.024;2024-03-07T00:57:23;55.15;;;32.30;;
58302;SDS011;44109;52.398;7.024;2024-03-07T00:59:51;49.30;;;31.08;;
58302;SDS011;44109;52.398;7.024;2024-03-07T01:02:19;52.10;;;30.60;;
58302;SDS011;44109;52.398;7.024;2024-03-07T01:04:46;52.38;;;32.78;;
58302;SDS011;44109;52.398;7.024;2024-03-07T01:07:14;48.78;;;30.98;;
58302;SDS011;44109;52.398;7.024;2024-03-07T01:09:44;40.17;;;26.65;;
58302;SDS011;44109;52.398;7.024;2024-03-07T01:12:12;54.70;;;33.67;;
58302;SDS011;44109;52.398;7.024;2024-03-07T01:14:41;42.38;;;27.88;;
58302;SDS011;44109;52.398;7.024;2024-03-07T01:17:08;53.85;;;33.97;;
58302;SDS011;44109;52.398;7.024;2024-03-07T01:19:36;48.55;;;29.83;;
58302;SDS011;44109;52.398;7.024;2024-03-07T01:22:04;47.05;;;26.00;;
58302;SDS011;44109;52.398;7.024;2024-03-07T01:24:34;48.53;;;30.23;;
58302;SDS011;44109;52.398;7.024;2024-03-07T01:27:01;49.33;;;30.50;;
58302;SDS011;44109;52.398;7.024;2024-03-07T01:29:29;51.28;;;33.10;;
58302;SDS011;44109;52.398;7.024;2024-03-07T01:31:58;45.63;;;29.25;;
58302;SDS011;44109;52.398;7.024;2024-03-07T01:34:26;45.55;;;27.63;;
58302;SDS011;44109;52.398;7.024;2024-03-07T01:36:54;48.00;;;29.35;;
58302;SDS011;44109;52.398;7.024;2024-03-07T01:39:22;45.63;;;29.55;;
58302;SDS011;44109;52.398;7.024;2024-03-07T01:41:49;51.63;;;32.92;;
58302;SDS011;44109;52.398;7.024;2024-03-07T01:44:17;52.50;;;29.73;;
58302;SDS011;44109;52.398;7.024;2024-03-07T01:46:45;49.90;;;31.08;;
58302;SDS011;44109;52.398;7.024;2024-03-07T01:49:14;44.92;;;26.05;;
58302;SDS011;44109;52.398;7.024;2024-03-07T01:51:42;48.35;;;28.05;;
58302;SDS011;44109;52.398;7.024;2024-03-07T01:54:10;44.58;;;27.80;;
58302;SDS011;44109;52.398;7.024;2024-03-07T01:56:38;44.80;;;26.48;;
58302;SDS011;44109;52.398;7.024;2024-03-07T01:59:06;44.28;;;27.67;;
58302;SDS011;44109;52.398;7.024;2024-03-07T02:01:35;48.33;;;30.25;;
58302;SDS011;44109;52.398;7.024;2024-03-07T02:04:03;44.75;;;27.88;;
58302;SDS011;44109;52.398;7.024;2024-03-07T02:06:33;46.47;;;29.08;;
58302;SDS011;44109;52.398;7.024;2024-03-07T02:09:01;45.40;;;27.35;;
58302;SDS011;44109;52.398;7.024;2024-03-07T02:11:31;44.88;;;27.30;;
58302;SDS011;44109;52.398;7.024;2024-03-07T02:13:59;46.88;;;29.65;;
58302;SDS011;44109;52.398;7.024;2024-03-07T02:16:28;41.35;;;26.92;;
58302;SDS011;44109;52.398;7.024;2024-03-07T02:18:56;45.58;;;30.98;;
58302;SDS011;44109;52.398;7.024;2024-03-07T02:21:27;41.22;;;29.23;;
58302;SDS011;44109;52.398;7.024;2024-03-07T02:23:55;39.17;;;24.85;;
58302;SDS011;44109;52.398;7.024;2024-03-07T02:26:22;46.22;;;28.85;;
58302;SDS011;44109;52.398;7.024;2024-03-07T02:28:50;44.40;;;26.63;;
58302;SDS011;44109;52.398;7.024;2024-03-07T02:31:18;42.90;;;25.20;;
58302;SDS011;44109;52.398;7.024;2024-03-07T02:33:46;38.05;;;23.52;;
58302;SDS011;44109;52.398;7.024;2024-03-07T02:36:14;39.42;;;26.30;;
58302;SDS011;44109;52.398;7.024;2024-03-07T02:38:43;46.90;;;29.90;;
58302;SDS011;44109;52.398;7.024;2024-03-07T02:41:10;36.92;;;24.60;;
58302;SDS011;44109;52.398;7.024;2024-03-07T02:43:38;39.67;;;25.85;;
58302;SDS011;44109;52.398;7.024;2024-03-07T02:46:06;35.90;;;23.35;;
58302;SDS011;44109;52.398;7.024;2024-03-07T02:48:34;44.33;;;26.67;;
58302;SDS011;44109;52.398;7.024;2024-03-07T02:51:02;39.35;;;25.95;;
58302;SDS011;44109;52.398;7.024;2024-03-07T02:53:31;41.78;;;27.65;;
58302;SDS011;44109;52.398;7.024;2024-03-07T02:56:00;38.08;;;24.33;;
58302;SDS011;44109;52.398;7.024;2024-03-07T02:58:28;38.08;;;24.20;;
58302;SDS011;44109;52.398;7.024;2024-03-07T03:00:57;40.08;;;23.10;;
58302;SDS011;44109;52.398;7.024;2024-03-07T03:03:25;36.92;;;23.58;;
58302;SDS011;44109;52.398;7.024;2024-03-07T03:05:53;47.72;;;28.15;;
58302;SDS011;44109;52.398;7.024;2024-03-07T03:08:21;38.05;;;23.75;;
58302;SDS011;44109;52.398;7.024;2024-03-07T03:10:49;40.70;;;26.63;;
58302;SDS011;44109;52.398;7.024;2024-03-07T03:13:19;44.72;;;24.58;;
58302;SDS011;44109;52.398;7.024;2024-03-07T03:15:47;42.63;;;27.48;;
58302;SDS011;44109;52.398;7.024;2024-03-07T03:18:15;40.30;;;25.38;;
58302;SDS011;44109;52.398;7.024;2024-03-07T03:20:43;36.35;;;25.27;;
58302;SDS011;44109;52.398;7.024;2024-03-07T03:23:14;42.80;;;25.23;;
58302;SDS011;44109;52.398;7.024;2024-03-07T03:25:42;36.83;;;22.77;;
58302;SDS011;44109;52.398;7.024;2024-03-07T03:28:11;38.92;;;23.90;;
58302;SDS011;44109;52.398;7.024;2024-03-07T03:30:40;39.53;;;25.42;;
58302;SDS011;44109;52.398;7.024;2024-03-07T03:33:08;48.25;;;29.48;;
58302;SDS011;44109;52.398;7.024;2024-03-07T03:35:36;44.92;;;27.63;;
58302;SDS011;44109;52.398;7.024;2024-03-07T03:38:05;38.90;;;25.00;;
58302;SDS011;44109;52.398;7.024;2024-03-07T03:40:33;44.00;;;27.25;;
58302;SDS011;44109;52.398;7.024;2024-03-07T03:43:01;37.80;;;24.20;;
58302;SDS011;44109;52.398;7.024;2024-03-07T03:45:29;40.67;;;25.83;;
58302;SDS011;44109;52.398;7.024;2024-03-07T03:47:59;32.03;;;22.05;;
58302;SDS011;44109;52.398;7.024;2024-03-07T03:50:28;40.47;;;25.65;;
58302;SDS011;44109;52.398;7.024;2024-03-07T03:52:55;39.97;;;25.60;;
58302;SDS011;44109;52.398;7.024;2024-03-07T03:55:24;36.75;;;22.65;;
58302;SDS011;44109;52.398;7.024;2024-03-07T03:57:51;35.05;;;23.30;;
58302;SDS011;44109;52.398;7.024;2024-03-07T04:00:19;39.85;;;26.27;;
58302;SDS011;44109;52.398;7.024;2024-03-07T04:02:48;40.85;;;25.95;;
58302;SDS011;44109;52.398;7.024;2024-03-07T04:05:18;39.35;;;26.40;;
58302;SDS011;44109;52.398;7.024;2024-03-07T04:07:47;40.45;;;24.00;;
58302;SDS011;44109;52.398;7.024;2024-03-07T04:10:16;35.15;;;22.50;;
58302;SDS011;44109;52.398;7.024;2024-03-07T04:12:44;31.77;;;21.08;;
58302;SDS011;44109;52.398;7.024;2024-03-07T04:15:13;36.03;;;23.52;;
58302;SDS011;44109;52.398;7.024;2024-03-07T04:17:43;33.30;;;21.75;;
58302;SDS011;44109;52.398;7.024;2024-03-07T04:20:12;35.83;;;24.20;;
58302;SDS011;44109;52.398;7.024;2024-03-07T04:22:44;33.60;;;22.60;;
58302;SDS011;44109;52.398;7.024;2024-03-07T04:25:11;35.50;;;24.27;;
58302;SDS011;44109;52.398;7.024;2024-03-07T04:27:40;39.55;;;23.27;;
58302;SDS011;44109;52.398;7.024;2024-03-07T04:30:08;34.53;;;22.13;;
58302;SDS011;44109;52.398;7.024;2024-03-07T04:32:38;34.95;;;23.35;;
58302;SDS011;44109;52.398;7.024;2024-03-07T04:35:08;36.40;;;23.15;;
58302;SDS011;44109;52.398;7.024;2024-03-07T04:37:36;33.85;;;21.55;;
58302;SDS011;44109;52.398;7.024;2024-03-07T04:40:06;34.50;;;22.15;;
58302;SDS011;44109;52.398;7.024;2024-03-07T04:42:41;31.30;;;20.90;;
58302;SDS011;44109;52.398;7.024;2024-03-07T04:45:09;36.67;;;23.30;;
58302;SDS011;44109;52.398;7.024;2024-03-07T04:47:39;38.90;;;23.40;;
58302;SDS011;44109;52.398;7.024;2024-03-07T04:50:08;40.55;;;24.52;;
58302;SDS011;44109;52.398;7.024;2024-03-07T04:52:37;34.38;;;21.27;;
58302;SDS011;44109;52.398;7.024;2024-03-07T04:55:06;34.47;;;19.77;;
58302;SDS011;44109;52.398;7.024;2024-03-07T04:57:36;34.80;;;22.08;;
58302;SDS011;44109;52.398;7.024;2024-03-07T05:00:06;35.25;;;23.35;;
58302;SDS011;44109;52.398;7.024;2024-03-07T05:05:07;31.35;;;20.83;;
58302;SDS011;44109;52.398;7.024;2024-03-07T05:07:35;36.08;;;21.45;;
58302;SDS011;44109;52.398;7.024;2024-03-07T05:10:03;36.42;;;23.75;;
58302;SDS011;44109;52.398;7.024;2024-03-07T05:12:34;40.22;;;24.45;;
58302;SDS011;44109;52.398;7.024;2024-03-07T05:15:02;31.92;;;21.70;;
58302;SDS011;44109;52.398;7.024;2024-03-07T05:17:32;32.13;;;21.38;;
58302;SDS011;44109;52.398;7.024;2024-03-07T05:20:02;30.17;;;20.25;;
58302;SDS011;44109;52.398;7.024;2024-03-07T05:22:35;31.00;;;21.30;;
58302;SDS011;44109;52.398;7.024;2024-03-07T05:25:06;36.65;;;23.00;;
58302;SDS011;44109;52.398;7.024;2024-03-07T05:27:36;30.75;;;19.85;;
58302;SDS011;44109;52.398;7.024;2024-03-07T05:30:04;31.38;;;21.73;;
58302;SDS011;44109;52.398;7.024;2024-03-07T05:32:39;34.45;;;22.33;;
58302;SDS011;44109;52.398;7.024;2024-03-07T05:35:07;34.65;;;21.60;;
58302;SDS011;44109;52.398;7.024;2024-03-07T05:37:37;36.72;;;22.10;;
58302;SDS011;44109;52.398;7.024;2024-03-07T05:40:07;39.60;;;25.55;;
58302;SDS011;44109;52.398;7.024;2024-03-07T05:42:37;32.55;;;21.08;;
58302;SDS011;44109;52.398;7.024;2024-03-07T05:45:05;35.22;;;22.42;;
58302;SDS011;44109;52.398;7.024;2024-03-07T05:47:34;34.95;;;22.27;;
58302;SDS011;44109;52.398;7.024;2024-03-07T05:50:02;41.22;;;24.67;;
58302;SDS011;44109;52.398;7.024;2024-03-07T05:52:33;34.90;;;23.67;;
58302;SDS011;44109;52.398;7.024;2024-03-07T05:55:01;32.85;;;22.65;;
58302;SDS011;44109;52.398;7.024;2024-03-07T05:57:29;34.00;;;21.40;;
58302;SDS011;44109;52.398;7.024;2024-03-07T05:59:58;34.38;;;21.15;;
58302;SDS011;44109;52.398;7.024;2024-03-07T06:02:25;35.33;;;19.92;;
58302;SDS011;44109;52.398;7.024;2024-03-07T06:04:53;32.80;;;21.00;;
58302;SDS011;44109;52.398;7.024;2024-03-07T06:07:21;32.03;;;20.17;;
58302;SDS011;44109;52.398;7.024;2024-03-07T06:09:49;31.73;;;20.42;;
58302;SDS011;44109;52.398;7.024;2024-03-07T06:12:16;32.72;;;20.52;;
58302;SDS011;44109;52.398;7.024;2024-03-07T06:14:44;32.00;;;20.33;;
58302;SDS011;44109;52.398;7.024;2024-03-07T06:17:13;32.30;;;19.17;;
58302;SDS011;44109;52.398;7.024;2024-03-07T06:19:41;30.85;;;20.67;;
58302;SDS011;44109;52.398;7.024;2024-03-07T06:22:08;30.63;;;21.15;;
58302;SDS011;44109;52.398;7.024;2024-03-07T06:24:36;31.85;;;20.92;;
58302;SDS011;44109;52.398;7.024;2024-03-07T06:27:06;32.45;;;21.63;;
58302;SDS011;44109;52.398;7.024;2024-03-07T06:29:42;31.95;;;20.67;;
58302;SDS011;44109;52.398;7.024;2024-03-07T06:32:09;28.85;;;19.15;;
58302;SDS011;44109;52.398;7.024;2024-03-07T06:34:39;30.90;;;22.50;;
58302;SDS011;44109;52.398;7.024;2024-03-07T06:37:06;34.15;;;21.00;;
58302;SDS011;44109;52.398;7.024;2024-03-07T06:39:34;30.02;;;19.52;;
58302;SDS011;44109;52.398;7.024;2024-03-07T06:42:02;32.28;;;20.52;;
58302;SDS011;44109;52.398;7.024;2024-03-07T06:44:31;31.48;;;20.17;;
58302;SDS011;44109;52.398;7.024;2024-03-07T06:46:59;28.73;;;19.27;;
58302;SDS011;44109;52.398;7.024;2024-03-07T06:49:27;30.67;;;19.00;;
58302;SDS011;44109;52.398;7.024;2024-03-07T06:51:57;30.92;;;20.23;;
58302;SDS011;44109;52.398;7.024;2024-03-07T06:54:25;32.13;;;19.63;;
58302;SDS011;44109;52.398;7.024;2024-03-07T06:56:53;28.88;;;18.77;;
58302;SDS011;44109;52.398;7.024;2024-03-07T06:59:21;26.88;;;18.27;;
58302;SDS011;44109;52.398;7.024;2024-03-07T07:01:48;32.40;;;20.17;;
58302;SDS011;44109;52.398;7.024;2024-03-07T07:04:17;31.85;;;18.27;;
58302;SDS011;44109;52.398;7.024;2024-03-07T07:06:45;28.73;;;18.58;;
58302;SDS011;44109;52.398;7.024;2024-03-07T07:09:14;32.78;;;20.67;;
58302;SDS011;44109;52.398;7.024;2024-03-07T07:11:44;29.40;;;18.35;;
58302;SDS011;44109;52.398;7.024;2024-03-07T07:14:13;29.10;;;18.85;;
58302;SDS011;44109;52.398;7.024;2024-03-07T07:16:40;30.23;;;18.38;;
58302;SDS011;44109;52.398;7.024;2024-03-07T07:19:12;32.03;;;18.30;;
58302;SDS011;44109;52.398;7.024;2024-03-07T07:21:39;31.40;;;18.52;;
58302;SDS011;44109;52.398;7.024;2024-03-07T07:24:07;32.60;;;21.27;;
58302;SDS011;44109;52.398;7.024;2024-03-07T07:26:38;28.08;;;18.38;;
58302;SDS011;44109;52.398;7.024;2024-03-07T07:29:06;32.47;;;20.10;;
58302;SDS011;44109;52.398;7.024;2024-03-07T07:31:33;35.13;;;21.42;;
58302;SDS011;44109;52.398;7.024;2024-03-07T07:34:01;28.95;;;19.02;;
58302;SDS011;44109;52.398;7.024;2024-03-07T07:36:30;34.45;;;20.90;;
58302;SDS011;44109;52.398;7.024;2024-03-07T07:38:58;27.50;;;19.52;;
58302;SDS011;44109;52.398;7.024;2024-03-07T07:41:26;30.73;;;19.70;;
58302;SDS011;44109;52.398;7.024;2024-03-07T07:43:55;38.15;;;22.20;;
58302;SDS011;44109;52.398;7.024;2024-03-07T07:46:23;40.35;;;23.95;;
58302;SDS011;44109;52.398;7.024;2024-03-07T07:48:50;34.35;;;21.63;;
58302;SDS011;44109;52.398;7.024;2024-03-07T07:51:19;34.38;;;22.42;;
58302;SDS011;44109;52.398;7.024;2024-03-07T07:53:47;31.63;;;19.30;;
58302;SDS011;44109;52.398;7.024;2024-03-07T07:56:14;25.05;;;16.25;;
58302;SDS011;44109;52.398;7.024;2024-03-07T07:58:42;29.80;;;19.00;;
58302;SDS011;44109;52.398;7.024;2024-03-07T08:01:11;29.08;;;18.33;;
58302;SDS011;44109;52.398;7.024;2024-03-07T08:03:42;28.17;;;18.77;;
58302;SDS011;44109;52.398;7.024;2024-03-07T08:06:11;30.10;;;19.10;;
58302;SDS011;44109;52.398;7.024;2024-03-07T08:08:38;27.73;;;17.77;;
58302;SDS011;44109;52.398;7.024;2024-03-07T08:11:06;31.90;;;19.67;;
58302;SDS011;44109;52.398;7.024;2024-03-07T08:13:34;28.00;;;19.02;;
58302;SDS011;44109;52.398;7.024;2024-03-07T08:16:02;27.65;;;18.67;;
58302;SDS011;44109;52.398;7.024;2024-03-07T08:18:32;25.23;;;16.63;;
58302;SDS011;44109;52.398;7.024;2024-03-07T08:21:00;27.50;;;18.60;;
58302;SDS011;44109;52.398;7.024;2024-03-07T08:23:28;30.25;;;19.40;;
58302;SDS011;44109;52.398;7.024;2024-03-07T08:25:57;28.65;;;18.58;;
58302;SDS011;44109;52.398;7.024;2024-03-07T08:28:25;27.67;;;17.92;;
58302;SDS011;44109;52.398;7.024;2024-03-07T08:30:52;32.30;;;20.70;;
58302;SDS011;44109;52.398;7.024;2024-03-07T08:33:20;28.52;;;18.95;;
58302;SDS011;44109;52.398;7.024;2024-03-07T08:35:49;27.65;;;18.58;;
58302;SDS011;44109;52.398;7.024;2024-03-07T08:38:19;27.40;;;17.67;;
58302;SDS011;44109;52.398;7.024;2024-03-07T08:40:47;32.60;;;19.40;;
58302;SDS011;44109;52.398;7.024;2024-03-07T08:43:14;32.20;;;20.33;;
58302;SDS011;44109;52.398;7.024;2024-03-07T08:45:42;32.13;;;20.75;;
58302;SDS011;44109;52.398;7.024;2024-03-07T08:48:10;33.67;;;21.17;;
58302;SDS011;44109;52.398;7.024;2024-03-07T08:50:39;29.80;;;19.95;;
58302;SDS011;44109;52.398;7.024;2024-03-07T08:56:09;27.63;;;17.53;;
58302;SDS011;44109;52.398;7.024;2024-03-07T08:58:38;27.88;;;18.83;;
58302;SDS011;44109;52.398;7.024;2024-03-07T09:01:05;26.55;;;19.30;;
58302;SDS011;44109;52.398;7.024;2024-03-07T09:03:33;32.97;;;22.10;;
58302;SDS011;44109;52.398;7.024;2024-03-07T09:06:03;27.50;;;17.90;;
58302;SDS011;44109;52.398;7.024;2024-03-07T09:08:31;30.48;;;21.38;;
58302;SDS011;44109;52.398;7.024;2024-03-07T09:10:58;31.63;;;19.77;;
58302;SDS011;44109;52.398;7.024;2024-03-07T09:13:27;31.67;;;22.35;;
58302;SDS011;44109;52.398;7.024;2024-03-07T09:15:55;30.98;;;18.63;;
58302;SDS011;44109;52.398;7.024;2024-03-07T09:18:23;31.60;;;19.10;;
58302;SDS011;44109;52.398;7.024;2024-03-07T09:20:51;27.50;;;18.33;;
58302;SDS011;44109;52.398;7.024;2024-03-07T09:23:18;31.10;;;18.88;;
58302;SDS011;44109;52.398;7.024;2024-03-07T09:25:46;30.17;;;20.00;;
58302;SDS011;44109;52.398;7.024;2024-03-07T09:28:14;31.55;;;20.17;;
58302;SDS011;44109;52.398;7.024;2024-03-07T09:30:44;24.73;;;17.80;;
58302;SDS011;44109;52.398;7.024;2024-03-07T09:33:11;31.77;;;21.35;;
58302;SDS011;44109;52.398;7.024;2024-03-07T09:35:42;32.30;;;19.35;;
58302;SDS011;44109;52.398;7.024;2024-03-07T09:38:10;29.08;;;19.77;;
58302;SDS011;44109;52.398;7.024;2024-03-07T09:40:37;30.50;;;18.75;;
58302;SDS011;44109;52.398;7.024;2024-03-07T09:43:06;30.00;;;18.48;;
58302;SDS011;44109;52.398;7.024;2024-03-07T09:45:36;33.25;;;19.88;;
58302;SDS011;44109;52.398;7.024;2024-03-07T09:48:08;37.60;;;24.60;;
58302;SDS011;44109;52.398;7.024;2024-03-07T09:50:38;36.90;;;22.63;;
58302;SDS011;44109;52.398;7.024;2024-03-07T09:53:09;34.47;;;21.75;;
58302;SDS011;44109;52.398;7.024;2024-03-07T09:55:36;33.75;;;20.48;;
58302;SDS011;44109;52.398;7.024;2024-03-07T09:58:04;32.05;;;21.30;;
58302;SDS011;44109;52.398;7.024;2024-03-07T10:00:36;31.10;;;20.75;;
58302;SDS011;44109;52.398;7.024;2024-03-07T10:03:09;32.13;;;20.20;;
58302;SDS011;44109;52.398;7.024;2024-03-07T10:05:39;29.33;;;18.98;;
58302;SDS011;44109;52.398;7.024;2024-03-07T10:08:08;31.45;;;21.08;;
58302;SDS011;44109;52.398;7.024;2024-03-07T10:10:36;28.08;;;18.30;;
58302;SDS011;44109;52.398;7.024;2024-03-07T10:13:04;34.85;;;20.73;;
58302;SDS011;44109;52.398;7.024;2024-03-07T10:15:34;28.75;;;19.23;;
58302;SDS011;44109;52.398;7.024;2024-03-07T10:18:06;30.42;;;20.58;;
58302;SDS011;44109;52.398;7.024;2024-03-07T10:20:36;31.48;;;19.52;;
58302;SDS011;44109;52.398;7.024;2024-03-07T10:23:05;28.77;;;18.73;;
58302;SDS011;44109;52.398;7.024;2024-03-07T10:25:33;31.65;;;21.00;;
58302;SDS011;44109;52.398;7.024;2024-03-07T10:28:02;30.30;;;19.85;;
58302;SDS011;44109;52.398;7.024;2024-03-07T10:30:39;25.83;;;16.58;;
58302;SDS011;44109;52.398;7.024;2024-03-07T10:33:08;27.27;;;17.33;;
58302;SDS011;44109;52.398;7.024;2024-03-07T10:35:37;25.33;;;18.35;;
58302;SDS011;44109;52.398;7.024;2024-03-07T10:38:05;26.42;;;17.33;;
58302;SDS011;44109;52.398;7.024;2024-03-07T10:40:33;25.30;;;17.25;;
58302;SDS011;44109;52.398;7.024;2024-03-07T10:43:04;24.40;;;16.88;;
58302;SDS011;44109;52.398;7.024;2024-03-07T10:45:39;26.42;;;18.25;;
58302;SDS011;44109;52.398;7.024;2024-03-07T10:48:17;21.45;;;15.25;;
58302;SDS011;44109;52.398;7.024;2024-03-07T10:50:52;23.67;;;16.38;;
58302;SDS011;44109;52.398;7.024;2024-03-07T10:53:38;25.80;;;18.00;;
58302;SDS011;44109;52.398;7.024;2024-03-07T10:56:22;25.80;;;16.98;;
58302;SDS011;44109;52.398;7.024;2024-03-07T10:59:01;23.10;;;15.98;;
58302;SDS011;44109;52.398;7.024;2024-03-07T11:01:44;22.45;;;14.82;;
58302;SDS011;44109;52.398;7.024;2024-03-07T11:04:22;23.17;;;15.43;;
58302;SDS011;44109;52.398;7.024;2024-03-07T11:06:51;24.02;;;16.05;;
58302;SDS011;44109;52.398;7.024;2024-03-07T11:09:19;21.98;;;15.23;;
58302;SDS011;44109;52.398;7.024;2024-03-07T11:11:54;22.98;;;15.77;;
58302;SDS011;44109;52.398;7.024;2024-03-07T11:14:25;23.00;;;14.77;;
58302;SDS011;44109;52.398;7.024;2024-03-07T11:16:55;22.10;;;16.08;;
58302;SDS011;44109;52.398;7.024;2024-03-07T11:19:27;23.95;;;15.98;;
58302;SDS011;44109;52.398;7.024;2024-03-07T11:22:02;21.85;;;14.32;;
58302;SDS011;44109;52.398;7.024;2024-03-07T11:24:39;22.00;;;14.68;;
58302;SDS011;44109;52.398;7.024;2024-03-07T11:27:10;23.23;;;15.82;;
58302;SDS011;44109;52.398;7.024;2024-03-07T11:29:40;23.70;;;16.63;;
58302;SDS011;44109;52.398;7.024;2024-03-07T11:32:18;24.15;;;15.43;;
58302;SDS011;44109;52.398;7.024;2024-03-07T11:34:49;23.70;;;15.32;;
58302;SDS011;44109;52.398;7.024;2024-03-07T11:40:10;24.90;;;15.50;;
58302;SDS011;44109;52.398;7.024;2024-03-07T11:42:44;27.48;;;18.05;;
58302;SDS011;44109;52.398;7.024;2024-03-07T11:45:14;25.58;;;17.00;;
58302;SDS011;44109;52.398;7.024;2024-03-07T11:47:52;24.33;;;17.15;;
58302;SDS011;44109;52.398;7.024;2024-03-07T11:50:27;27.52;;;16.60;;
58302;SDS011;44109;52.398;7.024;2024-03-07T11:52:55;25.15;;;16.55;;
58302;SDS011;44109;52.398;7.024;2024-03-07T11:55:23;28.92;;;18.20;;
58302;SDS011;44109;52.398;7.024;2024-03-07T11:57:51;30.23;;;19.45;;
58302;SDS011;44109;52.398;7.024;2024-03-07T12:00:18;29.70;;;17.95;;
58302;SDS011;44109;52.398;7.024;2024-03-07T12:02:53;31.67;;;18.83;;
58302;SDS011;44109;52.398;7.024;2024-03-07T12:05:21;27.17;;;16.67;;
58302;SDS011;44109;52.398;7.024;2024-03-07T12:07:52;30.25;;;19.02;;
58302;SDS011;44109;52.398;7.024;2024-03-07T12:10:20;30.55;;;18.60;;
58302;SDS011;44109;52.398;7.024;2024-03-07T12:12:50;30.38;;;17.83;;
58302;SDS011;44109;52.398;7.024;2024-03-07T12:15:18;29.45;;;18.00;;
58302;SDS011;44109;52.398;7.024;2024-03-07T12:17:46;33.45;;;19.52;;
58302;SDS011;44109;52.398;7.024;2024-03-07T12:20:16;30.95;;;19.48;;
58302;SDS011;44109;52.398;7.024;2024-03-07T12:22:58;30.80;;;19.65;;
58302;SDS011;44109;52.398;7.024;2024-03-07T12:25:28;31.77;;;19.00;;
58302;SDS011;44109;52.398;7.024;2024-03-07T12:28:00;28.40;;;17.27;;
58302;SDS011;44109;52.398;7.024;2024-03-07T12:30:37;30.55;;;18.80;;
58302;SDS011;44109;52.398;7.024;2024-03-07T12:33:17;29.27;;;17.88;;
58302;SDS011;44109;52.398;7.024;2024-03-07T12:35:46;31.02;;;18.80;;
58302;SDS011;44109;52.398;7.024;2024-03-07T12:38:17;31.88;;;19.15;;
58302;SDS011;44109;52.398;7.024;2024-03-07T12:40:45;30.42;;;17.05;;
58302;SDS011;44109;52.398;7.024;2024-03-07T12:43:14;29.27;;;16.40;;
58302;SDS011;44109;52.398;7.024;2024-03-07T12:45:49;29.60;;;17.80;;
58302;SDS011;44109;52.398;7.024;2024-03-07T12:48:19;31.70;;;19.23;;
58302;SDS011;44109;52.398;7.024;2024-03-07T12:50:48;32.40;;;21.63;;
58302;SDS011;44109;52.398;7.024;2024-03-07T12:53:20;32.67;;;19.77;;
58302;SDS011;44109;52.398;7.024;2024-03-07T12:55:49;33.40;;;20.30;;
58302;SDS011;44109;52.398;7.024;2024-03-07T12:58:18;40.15;;;25.45;;
58302;SDS011;44109;52.398;7.024;2024-03-07T13:00:48;32.53;;;19.80;;
58302;SDS011;44109;52.398;7.024;2024-03-07T13:03:16;33.13;;;17.85;;
58302;SDS011;44109;52.398;7.024;2024-03-07T13:05:43;35.08;;;21.00;;
58302;SDS011;44109;52.398;7.024;2024-03-07T13:08:11;31.48;;;18.40;;
58302;SDS011;44109;52.398;7.024;2024-03-07T13:10:40;28.63;;;16.23;;
58302;SDS011;44109;52.398;7.024;2024-03-07T13:13:09;35.53;;;21.55;;
58302;SDS011;44109;52.398;7.024;2024-03-07T13:15:38;32.03;;;18.13;;
58302;SDS011;44109;52.398;7.024;2024-03-07T13:18:08;33.25;;;18.60;;
58302;SDS011;44109;52.398;7.024;2024-03-07T13:20:36;28.15;;;16.42;;
58302;SDS011;44109;52.398;7.024;2024-03-07T13:23:04;27.20;;;16.58;;
58302;SDS011;44109;52.398;7.024;2024-03-07T13:25:32;30.08;;;17.38;;
58302;SDS011;44109;52.398;7.024;2024-03-07T13:28:03;28.98;;;17.45;;
58302;SDS011;44109;52.398;7.024;2024-03-07T13:30:34;30.00;;;16.73;;
58302;SDS011;44109;52.398;7.024;2024-03-07T13:33:03;32.65;;;18.17;;
58302;SDS011;44109;52.398;7.024;2024-03-07T13:35:31;26.92;;;15.85;;
58302;SDS011;44109;52.398;7.024;2024-03-07T13:37:59;33.58;;;19.35;;
58302;SDS011;44109;52.398;7.024;2024-03-07T13:40:27;27.45;;;16.52;;
58302;SDS011;44109;52.398;7.024;2024-03-07T13:42:57;28.75;;;17.48;;
58302;SDS011;44109;52.398;7.024;2024-03-07T13:45:29;27.75;;;16.25;;
58302;SDS011;44109;52.398;7.024;2024-03-07T13:48:00;29.40;;;17.30;;
58302;SDS011;44109;52.398;7.024;2024-03-07T13:50:31;25.65;;;15.20;;
58302;SDS011;44109;52.398;7.024;2024-03-07T13:53:01;26.15;;;15.93;;
58302;SDS011;44109;52.398;7.024;2024-03-07T13:55:40;26.90;;;15.50;;
58302;SDS011;44109;52.398;7.024;2024-03-07T13:58:34;33.85;;;17.52;;
58302;SDS011;44109;52.398;7.024;2024-03-07T14:01:28;29.45;;;16.98;;
58302;SDS011;44109;52.398;7.024;2024-03-07T14:04:16;28.55;;;16.40;;
58302;SDS011;44109;52.398;7.024;2024-03-07T14:10:29;30.38;;;17.25;;
58302;SDS011;44109;52.398;7.024;2024-03-07T14:13:40;29.08;;;17.48;;
58302;SDS011;44109;52.398;7.024;2024-03-07T14:20:29;28.70;;;17.92;;
58302;SDS011;44109;52.398;7.024;2024-03-07T14:23:30;34.22;;;17.35;;
58302;SDS011;44109;52.398;7.024;2024-03-07T14:26:14;31.42;;;18.70;;
58302;SDS011;44109;52.398;7.024;2024-03-07T14:29:38;33.13;;;18.67;;
58302;SDS011;44109;52.398;7.024;2024-03-07T14:32:16;32.13;;;19.65;;
58302;SDS011;44109;52.398;7.024;2024-03-07T14:34:47;32.88;;;18.02;;
58302;SDS011;44109;52.398;7.024;2024-03-07T14:37:23;31.63;;;17.92;;
58302;SDS011;44109;52.398;7.024;2024-03-07T14:39:58;35.83;;;21.20;;
58302;SDS011;44109;52.398;7.024;2024-03-07T14:42:37;31.45;;;17.60;;
58302;SDS011;44109;52.398;7.024;2024-03-07T14:45:12;28.23;;;17.85;;
58302;SDS011;44109;52.398;7.024;2024-03-07T14:47:48;30.75;;;17.75;;
58302;SDS011;44109;52.398;7.024;2024-03-07T14:50:19;32.10;;;19.95;;
58302;SDS011;44109;52.398;7.024;2024-03-07T14:52:48;32.55;;;18.45;;